首页
METAR-TAF:

METAR-TAF

机场 :

諾里奇, 英格兰

纬度: 52-38N, 经度: 001-18E, 海拔: 14米

当前天气观测

该预报发布于15分钟前的15:50 UTC
风速11节,风向北转西北,在西转西北之间变化
温度 17°C
湿度 72%
气压 1011 hPa
能见度10公里或以上
散云层高于1900英尺

METAR: EGSH 021550Z 33011KT 300V360 9999 SCT019 17/12 Q1011

时间: 17:05 (16:05 UTC)

预报

该预报发布于2小时和5分钟前的14:00 UTC
预报有效从02日的 15点(UTC)到 02日的 24点(UTC)
风速10节,风向西北
能见度10公里或以上
散云层高于3000英尺
几率 30% :
短暂存在
从 02日的 15点(UTC)到 02日的 16点(UTC)
能見度: 4000
多云层高于1400英尺
雷暴, 大雨
成为
从 02日的 20点(UTC)到 02日的 23点(UTC)
风速2节,风向多变

TAF: EGSH 021400Z 0215/0224 31010KT 9999 SCT030 PROB30 TEMPO 0215/0216 4000 +TSRA BKN014 BECMG 0220/0223 VRB02KT

超过4000个机场的气象观测和天气预报(METAR&TAF报告)。

可查询的气象台以黄色和红色小点在地图上表示。

将鼠标移到小点上方,可查看气象台名称。

然后点击查看天气观测和预报。

如需切换地图:点击带黑十字的绿色按钮放大地图;点击带横线的绿色按钮缩小地图;或者点击绿色箭头查看邻近地区的地图。


METAR-TAF: